sensor_id;sensor_type;location;lat;lon;timestamp;P1;durP1;ratioP1;P2;durP2;ratioP2
19804;SDS011;10062;51.052;13.756;2023-04-08T00:00:48;20.57;;;12.10;;
19804;SDS011;10062;51.052;13.756;2023-04-08T00:03:20;19.90;;;12.47;;
19804;SDS011;10062;51.052;13.756;2023-04-08T00:05:52;22.93;;;13.50;;
19804;SDS011;10062;51.052;13.756;2023-04-08T00:08:23;23.37;;;13.67;;
19804;SDS011;10062;51.052;13.756;2023-04-08T00:10:55;23.37;;;12.80;;
19804;SDS011;10062;51.052;13.756;2023-04-08T00:13:27;30.00;;;15.50;;
19804;SDS011;10062;51.052;13.756;2023-04-08T00:16:00;27.30;;;14.70;;
19804;SDS011;10062;51.052;13.756;2023-04-08T00:18:32;25.10;;;13.93;;
19804;SDS011;10062;51.052;13.756;2023-04-08T00:21:04;25.03;;;14.40;;
19804;SDS011;10062;51.052;13.756;2023-04-08T00:23:35;27.17;;;14.67;;
19804;SDS011;10062;51.052;13.756;2023-04-08T00:26:07;28.73;;;15.43;;
19804;SDS011;10062;51.052;13.756;2023-04-08T00:28:38;25.93;;;13.63;;
19804;SDS011;10062;51.052;13.756;2023-04-08T00:31:12;29.47;;;16.13;;
19804;SDS011;10062;51.052;13.756;2023-04-08T00:33:44;29.50;;;15.40;;
19804;SDS011;10062;51.052;13.756;2023-04-08T00:36:16;27.60;;;15.50;;
19804;SDS011;10062;51.052;13.756;2023-04-08T00:38:48;25.47;;;13.47;;
19804;SDS011;10062;51.052;13.756;2023-04-08T00:41:20;29.57;;;15.20;;
19804;SDS011;10062;51.052;13.756;2023-04-08T00:43:51;27.23;;;14.07;;
19804;SDS011;10062;51.052;13.756;2023-04-08T00:46:25;35.10;;;16.60;;
19804;SDS011;10062;51.052;13.756;2023-04-08T00:48:57;30.23;;;16.73;;
19804;SDS011;10062;51.052;13.756;2023-04-08T00:51:31;36.30;;;18.47;;
19804;SDS011;10062;51.052;13.756;2023-04-08T00:54:05;33.93;;;15.83;;
19804;SDS011;10062;51.052;13.756;2023-04-08T00:56:37;32.80;;;16.73;;
19804;SDS011;10062;51.052;13.756;2023-04-08T00:59:09;31.80;;;16.03;;
19804;SDS011;10062;51.052;13.756;2023-04-08T01:01:43;29.80;;;15.93;;
19804;SDS011;10062;51.052;13.756;2023-04-08T01:04:20;29.40;;;15.77;;
19804;SDS011;10062;51.052;13.756;2023-04-08T01:07:00;29.03;;;15.33;;
19804;SDS011;10062;51.052;13.756;2023-04-08T01:09:45;27.67;;;15.27;;
19804;SDS011;10062;51.052;13.756;2023-04-08T01:12:19;32.90;;;15.80;;
19804;SDS011;10062;51.052;13.756;2023-04-08T01:14:58;32.13;;;14.10;;
19804;SDS011;10062;51.052;13.756;2023-04-08T01:17:34;35.20;;;16.90;;
19804;SDS011;10062;51.052;13.756;2023-04-08T01:20:07;32.17;;;15.13;;
19804;SDS011;10062;51.052;13.756;2023-04-08T01:22:44;30.23;;;14.57;;
19804;SDS011;10062;51.052;13.756;2023-04-08T01:25:26;30.67;;;15.07;;
19804;SDS011;10062;51.052;13.756;2023-04-08T01:28:03;34.33;;;15.60;;
19804;SDS011;10062;51.052;13.756;2023-04-08T01:30:37;36.63;;;16.57;;
19804;SDS011;10062;51.052;13.756;2023-04-08T01:33:10;32.00;;;16.40;;
19804;SDS011;10062;51.052;13.756;2023-04-08T01:35:44;36.43;;;16.73;;
19804;SDS011;10062;51.052;13.756;2023-04-08T01:38:16;32.77;;;15.07;;
19804;SDS011;10062;51.052;13.756;2023-04-08T01:40:52;32.27;;;15.17;;
19804;SDS011;10062;51.052;13.756;2023-04-08T01:43:27;34.37;;;16.00;;
19804;SDS011;10062;51.052;13.756;2023-04-08T01:46:01;31.53;;;15.20;;
19804;SDS011;10062;51.052;13.756;2023-04-08T01:48:33;26.03;;;14.37;;
19804;SDS011;10062;51.052;13.756;2023-04-08T01:51:07;27.90;;;14.40;;
19804;SDS011;10062;51.052;13.756;2023-04-08T01:53:39;26.27;;;13.83;;
19804;SDS011;10062;51.052;13.756;2023-04-08T01:56:13;29.40;;;14.60;;
19804;SDS011;10062;51.052;13.756;2023-04-08T01:58:50;26.33;;;13.60;;
19804;SDS011;10062;51.052;13.756;2023-04-08T02:01:24;29.77;;;14.37;;
19804;SDS011;10062;51.052;13.756;2023-04-08T02:03:57;27.90;;;14.37;;
19804;SDS011;10062;51.052;13.756;2023-04-08T02:06:30;29.00;;;13.60;;
19804;SDS011;10062;51.052;13.756;2023-04-08T02:09:03;26.07;;;11.83;;
19804;SDS011;10062;51.052;13.756;2023-04-08T02:11:36;27.00;;;12.73;;
19804;SDS011;10062;51.052;13.756;2023-04-08T02:14:09;28.43;;;12.67;;
19804;SDS011;10062;51.052;13.756;2023-04-08T02:16:43;27.93;;;12.97;;
19804;SDS011;10062;51.052;13.756;2023-04-08T02:19:23;24.07;;;11.27;;
19804;SDS011;10062;51.052;13.756;2023-04-08T02:22:01;23.27;;;10.80;;
19804;SDS011;10062;51.052;13.756;2023-04-08T02:24:37;23.23;;;10.83;;
19804;SDS011;10062;51.052;13.756;2023-04-08T02:27:10;24.53;;;10.93;;
19804;SDS011;10062;51.052;13.756;2023-04-08T02:29:44;29.73;;;11.00;;
19804;SDS011;10062;51.052;13.756;2023-04-08T02:32:17;23.97;;;11.07;;
19804;SDS011;10062;51.052;13.756;2023-04-08T02:34:49;22.40;;;10.23;;
19804;SDS011;10062;51.052;13.756;2023-04-08T02:37:21;23.10;;;11.00;;
19804;SDS011;10062;51.052;13.756;2023-04-08T02:39:53;25.47;;;10.73;;
19804;SDS011;10062;51.052;13.756;2023-04-08T02:42:25;23.70;;;9.67;;
19804;SDS011;10062;51.052;13.756;2023-04-08T02:44:58;21.17;;;9.57;;
19804;SDS011;10062;51.052;13.756;2023-04-08T02:47:29;22.47;;;10.20;;
19804;SDS011;10062;51.052;13.756;2023-04-08T02:50:01;19.63;;;9.97;;
19804;SDS011;10062;51.052;13.756;2023-04-08T02:52:33;19.63;;;9.30;;
19804;SDS011;10062;51.052;13.756;2023-04-08T02:55:05;20.63;;;9.40;;
19804;SDS011;10062;51.052;13.756;2023-04-08T02:57:39;19.90;;;9.33;;
19804;SDS011;10062;51.052;13.756;2023-04-08T03:00:14;19.60;;;8.87;;
19804;SDS011;10062;51.052;13.756;2023-04-08T03:02:46;19.13;;;9.03;;
19804;SDS011;10062;51.052;13.756;2023-04-08T03:05:18;18.40;;;9.20;;
19804;SDS011;10062;51.052;13.756;2023-04-08T03:07:50;17.57;;;8.63;;
19804;SDS011;10062;51.052;13.756;2023-04-08T03:10:22;16.97;;;8.37;;
19804;SDS011;10062;51.052;13.756;2023-04-08T03:12:54;18.13;;;9.00;;
19804;SDS011;10062;51.052;13.756;2023-04-08T03:15:27;17.70;;;8.63;;
19804;SDS011;10062;51.052;13.756;2023-04-08T03:17:58;19.87;;;8.30;;
19804;SDS011;10062;51.052;13.756;2023-04-08T03:20:30;18.40;;;8.33;;
19804;SDS011;10062;51.052;13.756;2023-04-08T03:23:02;19.97;;;9.77;;
19804;SDS011;10062;51.052;13.756;2023-04-08T03:25:33;20.30;;;9.37;;
19804;SDS011;10062;51.052;13.756;2023-04-08T03:28:05;21.37;;;8.73;;
19804;SDS011;10062;51.052;13.756;2023-04-08T03:30:38;20.10;;;9.60;;
19804;SDS011;10062;51.052;13.756;2023-04-08T03:33:09;17.80;;;8.53;;
19804;SDS011;10062;51.052;13.756;2023-04-08T03:35:41;24.27;;;8.97;;
19804;SDS011;10062;51.052;13.756;2023-04-08T03:38:13;17.73;;;8.00;;
19804;SDS011;10062;51.052;13.756;2023-04-08T03:40:44;21.93;;;8.60;;
19804;SDS011;10062;51.052;13.756;2023-04-08T03:43:16;19.47;;;8.93;;
19804;SDS011;10062;51.052;13.756;2023-04-08T03:45:51;18.13;;;8.27;;
19804;SDS011;10062;51.052;13.756;2023-04-08T03:48:23;18.60;;;9.10;;
19804;SDS011;10062;51.052;13.756;2023-04-08T03:50:55;18.13;;;8.77;;
19804;SDS011;10062;51.052;13.756;2023-04-08T03:53:26;20.83;;;10.17;;
19804;SDS011;10062;51.052;13.756;2023-04-08T03:55:58;17.33;;;8.50;;
19804;SDS011;10062;51.052;13.756;2023-04-08T03:58:31;18.93;;;9.07;;
19804;SDS011;10062;51.052;13.756;2023-04-08T04:01:04;18.60;;;8.40;;
19804;SDS011;10062;51.052;13.756;2023-04-08T04:03:36;17.63;;;9.07;;
19804;SDS011;10062;51.052;13.756;2023-04-08T04:06:08;18.43;;;8.67;;
19804;SDS011;10062;51.052;13.756;2023-04-08T04:08:40;17.53;;;7.27;;
19804;SDS011;10062;51.052;13.756;2023-04-08T04:11:12;14.67;;;7.70;;
19804;SDS011;10062;51.052;13.756;2023-04-08T04:13:43;18.07;;;8.60;;
19804;SDS011;10062;51.052;13.756;2023-04-08T04:16:16;15.37;;;8.13;;
19804;SDS011;10062;51.052;13.756;2023-04-08T04:18:48;18.17;;;8.03;;
19804;SDS011;10062;51.052;13.756;2023-04-08T04:21:19;20.17;;;7.70;;
19804;SDS011;10062;51.052;13.756;2023-04-08T04:23:51;16.37;;;8.13;;
19804;SDS011;10062;51.052;13.756;2023-04-08T04:26:23;15.33;;;6.83;;
19804;SDS011;10062;51.052;13.756;2023-04-08T04:28:55;17.53;;;8.17;;
19804;SDS011;10062;51.052;13.756;2023-04-08T04:31:27;14.50;;;6.83;;
19804;SDS011;10062;51.052;13.756;2023-04-08T04:33:59;16.03;;;6.70;;
19804;SDS011;10062;51.052;13.756;2023-04-08T04:36:31;15.33;;;6.97;;
19804;SDS011;10062;51.052;13.756;2023-04-08T04:39:03;15.57;;;7.87;;
19804;SDS011;10062;51.052;13.756;2023-04-08T04:41:34;16.07;;;7.27;;
19804;SDS011;10062;51.052;13.756;2023-04-08T04:44:09;16.33;;;7.33;;
19804;SDS011;10062;51.052;13.756;2023-04-08T04:46:42;16.87;;;8.23;;
19804;SDS011;10062;51.052;13.756;2023-04-08T04:49:14;19.33;;;6.97;;
19804;SDS011;10062;51.052;13.756;2023-04-08T04:51:45;19.30;;;9.03;;
19804;SDS011;10062;51.052;13.756;2023-04-08T04:54:18;16.30;;;7.40;;
19804;SDS011;10062;51.052;13.756;2023-04-08T04:56:49;17.63;;;7.43;;
19804;SDS011;10062;51.052;13.756;2023-04-08T04:59:21;17.97;;;8.40;;
19804;SDS011;10062;51.052;13.756;2023-04-08T05:01:54;18.90;;;9.03;;
19804;SDS011;10062;51.052;13.756;2023-04-08T05:04:26;20.00;;;8.63;;
19804;SDS011;10062;51.052;13.756;2023-04-08T05:06:58;20.80;;;9.27;;
19804;SDS011;10062;51.052;13.756;2023-04-08T05:09:29;20.23;;;8.17;;
19804;SDS011;10062;51.052;13.756;2023-04-08T05:12:01;18.90;;;8.80;;
19804;SDS011;10062;51.052;13.756;2023-04-08T05:14:33;19.30;;;8.23;;
19804;SDS011;10062;51.052;13.756;2023-04-08T05:17:06;19.33;;;8.60;;
19804;SDS011;10062;51.052;13.756;2023-04-08T05:19:37;18.37;;;8.43;;
19804;SDS011;10062;51.052;13.756;2023-04-08T05:22:09;20.13;;;9.23;;
19804;SDS011;10062;51.052;13.756;2023-04-08T05:24:41;20.27;;;8.37;;
19804;SDS011;10062;51.052;13.756;2023-04-08T05:27:12;19.00;;;8.07;;
19804;SDS011;10062;51.052;13.756;2023-04-08T05:29:44;17.37;;;7.93;;
19804;SDS011;10062;51.052;13.756;2023-04-08T05:32:17;18.67;;;8.37;;
19804;SDS011;10062;51.052;13.756;2023-04-08T05:34:49;18.23;;;6.90;;
19804;SDS011;10062;51.052;13.756;2023-04-08T05:37:20;17.53;;;8.27;;
19804;SDS011;10062;51.052;13.756;2023-04-08T05:39:52;18.07;;;9.03;;
19804;SDS011;10062;51.052;13.756;2023-04-08T05:42:23;17.57;;;8.17;;
19804;SDS011;10062;51.052;13.756;2023-04-08T05:44:56;20.30;;;9.50;;
19804;SDS011;10062;51.052;13.756;2023-04-08T05:47:29;14.77;;;7.57;;
19804;SDS011;10062;51.052;13.756;2023-04-08T05:50:07;20.07;;;8.43;;
19804;SDS011;10062;51.052;13.756;2023-04-08T05:52:45;17.33;;;8.10;;
19804;SDS011;10062;51.052;13.756;2023-04-08T05:55:22;21.10;;;8.90;;
19804;SDS011;10062;51.052;13.756;2023-04-08T05:57:59;19.00;;;9.10;;
19804;SDS011;10062;51.052;13.756;2023-04-08T06:00:31;21.00;;;8.87;;
19804;SDS011;10062;51.052;13.756;2023-04-08T06:03:04;22.47;;;9.97;;
19804;SDS011;10062;51.052;13.756;2023-04-08T06:05:36;21.47;;;10.70;;
19804;SDS011;10062;51.052;13.756;2023-04-08T06:08:08;18.70;;;9.13;;
19804;SDS011;10062;51.052;13.756;2023-04-08T06:10:39;21.80;;;10.43;;
19804;SDS011;10062;51.052;13.756;2023-04-08T06:13:11;21.97;;;9.97;;
19804;SDS011;10062;51.052;13.756;2023-04-08T06:15:43;21.30;;;9.77;;
19804;SDS011;10062;51.052;13.756;2023-04-08T06:18:16;21.23;;;9.10;;
19804;SDS011;10062;51.052;13.756;2023-04-08T06:20:47;22.83;;;9.90;;
19804;SDS011;10062;51.052;13.756;2023-04-08T06:23:19;16.57;;;7.90;;
19804;SDS011;10062;51.052;13.756;2023-04-08T06:25:52;20.63;;;10.00;;
19804;SDS011;10062;51.052;13.756;2023-04-08T06:28:24;19.47;;;9.50;;
19804;SDS011;10062;51.052;13.756;2023-04-08T06:30:55;24.53;;;9.27;;
19804;SDS011;10062;51.052;13.756;2023-04-08T06:33:29;19.43;;;9.90;;
19804;SDS011;10062;51.052;13.756;2023-04-08T06:36:01;19.93;;;10.43;;
19804;SDS011;10062;51.052;13.756;2023-04-08T06:38:33;21.60;;;10.47;;
19804;SDS011;10062;51.052;13.756;2023-04-08T06:41:05;25.53;;;10.50;;
19804;SDS011;10062;51.052;13.756;2023-04-08T06:43:38;24.97;;;12.10;;
19804;SDS011;10062;51.052;13.756;2023-04-08T06:46:09;29.30;;;12.60;;
19804;SDS011;10062;51.052;13.756;2023-04-08T06:48:42;26.00;;;12.47;;
19804;SDS011;10062;51.052;13.756;2023-04-08T06:51:14;25.70;;;12.40;;
19804;SDS011;10062;51.052;13.756;2023-04-08T06:53:46;28.20;;;13.33;;
19804;SDS011;10062;51.052;13.756;2023-04-08T06:56:18;28.37;;;14.53;;
19804;SDS011;10062;51.052;13.756;2023-04-08T06:58:51;28.37;;;13.77;;
19804;SDS011;10062;51.052;13.756;2023-04-08T07:01:23;25.20;;;12.53;;
19804;SDS011;10062;51.052;13.756;2023-04-08T07:03:56;25.97;;;13.40;;
19804;SDS011;10062;51.052;13.756;2023-04-08T07:06:28;24.80;;;12.97;;
19804;SDS011;10062;51.052;13.756;2023-04-08T07:08:59;25.57;;;13.90;;
19804;SDS011;10062;51.052;13.756;2023-04-08T07:11:31;29.00;;;15.20;;
19804;SDS011;10062;51.052;13.756;2023-04-08T07:14:02;31.23;;;14.40;;
19804;SDS011;10062;51.052;13.756;2023-04-08T07:16:34;25.33;;;13.17;;
19804;SDS011;10062;51.052;13.756;2023-04-08T07:19:07;25.40;;;13.47;;
19804;SDS011;10062;51.052;13.756;2023-04-08T07:21:39;27.57;;;12.93;;
19804;SDS011;10062;51.052;13.756;2023-04-08T07:24:11;26.50;;;13.03;;
19804;SDS011;10062;51.052;13.756;2023-04-08T07:26:43;24.50;;;12.40;;
19804;SDS011;10062;51.052;13.756;2023-04-08T07:29:14;24.40;;;12.43;;
19804;SDS011;10062;51.052;13.756;2023-04-08T07:31:46;22.53;;;12.27;;
19804;SDS011;10062;51.052;13.756;2023-04-08T07:34:19;25.03;;;12.63;;
19804;SDS011;10062;51.052;13.756;2023-04-08T07:36:51;23.77;;;11.33;;
19804;SDS011;10062;51.052;13.756;2023-04-08T07:39:22;23.73;;;11.70;;
19804;SDS011;10062;51.052;13.756;2023-04-08T07:41:54;17.77;;;9.80;;
19804;SDS011;10062;51.052;13.756;2023-04-08T07:44:26;17.53;;;9.63;;
19804;SDS011;10062;51.052;13.756;2023-04-08T07:46:57;18.80;;;10.20;;
19804;SDS011;10062;51.052;13.756;2023-04-08T07:49:31;21.57;;;10.93;;
19804;SDS011;10062;51.052;13.756;2023-04-08T07:52:02;17.80;;;8.90;;
19804;SDS011;10062;51.052;13.756;2023-04-08T07:54:34;16.53;;;8.83;;
19804;SDS011;10062;51.052;13.756;2023-04-08T07:57:05;17.40;;;8.77;;
19804;SDS011;10062;51.052;13.756;2023-04-08T07:59:37;15.40;;;9.27;;
19804;SDS011;10062;51.052;13.756;2023-04-08T08:02:09;15.90;;;8.93;;
19804;SDS011;10062;51.052;13.756;2023-04-08T08:04:42;15.80;;;7.57;;
19804;SDS011;10062;51.052;13.756;2023-04-08T08:07:14;16.83;;;8.13;;
19804;SDS011;10062;51.052;13.756;2023-04-08T08:09:45;12.13;;;7.23;;
19804;SDS011;10062;51.052;13.756;2023-04-08T08:12:18;13.47;;;7.40;;
19804;SDS011;10062;51.052;13.756;2023-04-08T08:14:49;11.03;;;6.23;;
19804;SDS011;10062;51.052;13.756;2023-04-08T08:17:24;13.00;;;6.60;;
19804;SDS011;10062;51.052;13.756;2023-04-08T08:20:00;10.00;;;6.27;;
19804;SDS011;10062;51.052;13.756;2023-04-08T08:22:33;13.10;;;7.23;;
19804;SDS011;10062;51.052;13.756;2023-04-08T08:25:05;12.50;;;6.50;;
19804;SDS011;10062;51.052;13.756;2023-04-08T08:27:38;13.03;;;6.80;;
19804;SDS011;10062;51.052;13.756;2023-04-08T08:30:11;9.37;;;5.90;;
19804;SDS011;10062;51.052;13.756;2023-04-08T08:32:43;11.90;;;6.00;;
19804;SDS011;10062;51.052;13.756;2023-04-08T08:35:16;11.37;;;6.63;;
19804;SDS011;10062;51.052;13.756;2023-04-08T08:37:48;10.77;;;6.30;;
19804;SDS011;10062;51.052;13.756;2023-04-08T08:40:19;10.97;;;6.37;;
19804;SDS011;10062;51.052;13.756;2023-04-08T08:42:51;10.40;;;6.90;;
19804;SDS011;10062;51.052;13.756;2023-04-08T08:45:23;11.53;;;7.03;;
19804;SDS011;10062;51.052;13.756;2023-04-08T08:47:55;11.10;;;6.83;;
19804;SDS011;10062;51.052;13.756;2023-04-08T08:50:28;11.33;;;7.23;;
19804;SDS011;10062;51.052;13.756;2023-04-08T08:52:59;10.00;;;5.93;;
19804;SDS011;10062;51.052;13.756;2023-04-08T08:55:31;12.13;;;6.20;;
19804;SDS011;10062;51.052;13.756;2023-04-08T08:58:04;11.63;;;6.87;;
19804;SDS011;10062;51.052;13.756;2023-04-08T09:00:37;12.50;;;7.00;;
19804;SDS011;10062;51.052;13.756;2023-04-08T09:03:14;14.17;;;7.40;;
19804;SDS011;10062;51.052;13.756;2023-04-08T09:05:48;13.60;;;7.40;;
19804;SDS011;10062;51.052;13.756;2023-04-08T09:08:28;12.23;;;7.30;;
19804;SDS011;10062;51.052;13.756;2023-04-08T09:11:11;15.97;;;7.00;;
19804;SDS011;10062;51.052;13.756;2023-04-08T09:13:45;14.77;;;7.93;;
19804;SDS011;10062;51.052;13.756;2023-04-08T09:16:17;14.37;;;7.47;;
19804;SDS011;10062;51.052;13.756;2023-04-08T09:18:52;13.53;;;7.50;;
19804;SDS011;10062;51.052;13.756;2023-04-08T09:21:25;13.00;;;7.20;;
19804;SDS011;10062;51.052;13.756;2023-04-08T09:23:56;12.63;;;7.30;;
19804;SDS011;10062;51.052;13.756;2023-04-08T09:26:28;13.30;;;7.27;;
19804;SDS011;10062;51.052;13.756;2023-04-08T09:29:00;14.13;;;8.17;;
19804;SDS011;10062;51.052;13.756;2023-04-08T09:31:34;15.30;;;7.83;;
19804;SDS011;10062;51.052;13.756;2023-04-08T09:34:10;13.07;;;7.37;;
19804;SDS011;10062;51.052;13.756;2023-04-08T09:36:44;16.20;;;7.57;;
19804;SDS011;10062;51.052;13.756;2023-04-08T09:39:18;14.17;;;7.40;;
19804;SDS011;10062;51.052;13.756;2023-04-08T09:41:50;13.47;;;7.80;;
19804;SDS011;10062;51.052;13.756;2023-04-08T09:44:22;11.83;;;6.80;;
19804;SDS011;10062;51.052;13.756;2023-04-08T09:47:00;13.73;;;7.23;;
19804;SDS011;10062;51.052;13.756;2023-04-08T09:49:49;13.37;;;7.33;;
19804;SDS011;10062;51.052;13.756;2023-04-08T09:52:29;14.30;;;7.37;;
19804;SDS011;10062;51.052;13.756;2023-04-08T09:55:05;12.27;;;6.20;;
19804;SDS011;10062;51.052;13.756;2023-04-08T09:57:40;13.87;;;7.93;;
19804;SDS011;10062;51.052;13.756;2023-04-08T10:00:14;17.57;;;7.77;;
19804;SDS011;10062;51.052;13.756;2023-04-08T10:02:49;16.23;;;8.27;;
19804;SDS011;10062;51.052;13.756;2023-04-08T10:05:25;16.33;;;8.43;;
19804;SDS011;10062;51.052;13.756;2023-04-08T10:07:59;13.27;;;7.70;;
19804;SDS011;10062;51.052;13.756;2023-04-08T10:10:31;17.00;;;8.70;;
19804;SDS011;10062;51.052;13.756;2023-04-08T10:13:04;14.70;;;8.70;;
19804;SDS011;10062;51.052;13.756;2023-04-08T10:15:37;16.63;;;9.00;;
19804;SDS011;10062;51.052;13.756;2023-04-08T10:21:01;16.07;;;9.00;;
19804;SDS011;10062;51.052;13.756;2023-04-08T10:23:56;14.93;;;7.93;;
19804;SDS011;10062;51.052;13.756;2023-04-08T10:26:31;16.23;;;7.97;;
19804;SDS011;10062;51.052;13.756;2023-04-08T10:32:01;14.23;;;7.60;;
19804;SDS011;10062;51.052;13.756;2023-04-08T10:34:33;13.10;;;7.90;;
19804;SDS011;10062;51.052;13.756;2023-04-08T10:37:05;12.67;;;6.93;;
19804;SDS011;10062;51.052;13.756;2023-04-08T10:39:39;14.23;;;7.50;;
19804;SDS011;10062;51.052;13.756;2023-04-08T10:42:19;16.97;;;7.30;;
19804;SDS011;10062;51.052;13.756;2023-04-08T10:45:00;14.23;;;7.50;;
19804;SDS011;10062;51.052;13.756;2023-04-08T10:47:32;12.90;;;6.60;;
19804;SDS011;10062;51.052;13.756;2023-04-08T10:50:10;14.20;;;7.70;;
19804;SDS011;10062;51.052;13.756;2023-04-08T10:52:45;13.50;;;7.00;;
19804;SDS011;10062;51.052;13.756;2023-04-08T10:55:22;14.97;;;7.53;;
19804;SDS011;10062;51.052;13.756;2023-04-08T10:57:54;10.17;;;6.60;;
19804;SDS011;10062;51.052;13.756;2023-04-08T11:00:31;11.43;;;6.30;;
19804;SDS011;10062;51.052;13.756;2023-04-08T11:03:05;15.93;;;7.83;;
19804;SDS011;10062;51.052;13.756;2023-04-08T11:05:37;12.43;;;6.80;;
19804;SDS011;10062;51.052;13.756;2023-04-08T11:08:09;14.10;;;7.80;;
19804;SDS011;10062;51.052;13.756;2023-04-08T11:10:42;14.27;;;7.07;;
19804;SDS011;10062;51.052;13.756;2023-04-08T11:13:14;13.60;;;7.27;;
19804;SDS011;10062;51.052;13.756;2023-04-08T11:15:46;14.03;;;9.00;;
19804;SDS011;10062;51.052;13.756;2023-04-08T11:18:18;15.93;;;8.77;;
19804;SDS011;10062;51.052;13.756;2023-04-08T11:20:52;13.40;;;8.57;;
19804;SDS011;10062;51.052;13.756;2023-04-08T11:23:24;15.43;;;8.30;;
19804;SDS011;10062;51.052;13.756;2023-04-08T11:25:57;15.93;;;9.07;;
19804;SDS011;10062;51.052;13.756;2023-04-08T11:28:29;18.93;;;10.07;;
19804;SDS011;10062;51.052;13.756;2023-04-08T11:31:01;20.67;;;11.47;;
19804;SDS011;10062;51.052;13.756;2023-04-08T11:33:33;19.73;;;8.83;;
19804;SDS011;10062;51.052;13.756;2023-04-08T11:36:05;17.20;;;10.23;;
19804;SDS011;10062;51.052;13.756;2023-04-08T11:38:37;18.13;;;11.40;;
19804;SDS011;10062;51.052;13.756;2023-04-08T11:41:11;18.53;;;10.43;;
19804;SDS011;10062;51.052;13.756;2023-04-08T11:43:50;18.63;;;10.40;;
19804;SDS011;10062;51.052;13.756;2023-04-08T11:46:25;22.93;;;12.87;;
19804;SDS011;10062;51.052;13.756;2023-04-08T11:48:57;21.17;;;10.97;;
19804;SDS011;10062;51.052;13.756;2023-04-08T11:51:30;22.30;;;11.93;;
19804;SDS011;10062;51.052;13.756;2023-04-08T11:54:03;21.40;;;12.67;;
19804;SDS011;10062;51.052;13.756;2023-04-08T11:56:44;21.53;;;11.93;;
19804;SDS011;10062;51.052;13.756;2023-04-08T11:59:16;20.57;;;12.63;;
19804;SDS011;10062;51.052;13.756;2023-04-08T12:01:48;26.00;;;14.43;;
19804;SDS011;10062;51.052;13.756;2023-04-08T12:04:21;24.10;;;12.30;;
19804;SDS011;10062;51.052;13.756;2023-04-08T12:06:52;18.80;;;11.13;;
19804;SDS011;10062;51.052;13.756;2023-04-08T12:09:24;26.67;;;14.50;;
19804;SDS011;10062;51.052;13.756;2023-04-08T12:11:57;22.83;;;12.53;;
19804;SDS011;10062;51.052;13.756;2023-04-08T12:14:30;18.93;;;9.20;;
19804;SDS011;10062;51.052;13.756;2023-04-08T12:17:01;22.30;;;12.20;;
19804;SDS011;10062;51.052;13.756;2023-04-08T12:19:33;22.40;;;12.03;;
19804;SDS011;10062;51.052;13.756;2023-04-08T12:22:05;22.20;;;13.10;;
19804;SDS011;10062;51.052;13.756;2023-04-08T12:24:36;24.50;;;12.90;;
19804;SDS011;10062;51.052;13.756;2023-04-08T12:27:09;22.67;;;13.70;;
19804;SDS011;10062;51.052;13.756;2023-04-08T12:29:41;22.53;;;12.93;;
19804;SDS011;10062;51.052;13.756;2023-04-08T12:32:13;21.67;;;13.67;;
19804;SDS011;10062;51.052;13.756;2023-04-08T12:34:44;31.00;;;14.17;;
19804;SDS011;10062;51.052;13.756;2023-04-08T12:37:16;29.37;;;14.40;;
19804;SDS011;10062;51.052;13.756;2023-04-08T12:39:49;26.93;;;16.00;;
19804;SDS011;10062;51.052;13.756;2023-04-08T12:42:22;22.90;;;13.37;;
19804;SDS011;10062;51.052;13.756;2023-04-08T12:44:54;33.53;;;18.47;;
19804;SDS011;10062;51.052;13.756;2023-04-08T12:47:26;24.03;;;13.60;;
19804;SDS011;10062;51.052;13.756;2023-04-08T12:49:58;27.60;;;13.30;;
19804;SDS011;10062;51.052;13.756;2023-04-08T12:52:30;24.90;;;14.03;;
19804;SDS011;10062;51.052;13.756;2023-04-08T12:55:02;25.03;;;14.67;;
19804;SDS011;10062;51.052;13.756;2023-04-08T12:57:35;29.90;;;15.07;;
19804;SDS011;10062;51.052;13.756;2023-04-08T13:00:07;22.47;;;12.87;;
19804;SDS011;10062;51.052;13.756;2023-04-08T13:02:40;24.57;;;13.00;;
19804;SDS011;10062;51.052;13.756;2023-04-08T13:05:13;23.17;;;12.97;;
19804;SDS011;10062;51.052;13.756;2023-04-08T13:07:44;20.97;;;12.87;;
19804;SDS011;10062;51.052;13.756;2023-04-08T13:10:16;27.23;;;14.40;;
19804;SDS011;10062;51.052;13.756;2023-04-08T13:12:49;23.70;;;12.73;;
19804;SDS011;10062;51.052;13.756;2023-04-08T13:15:21;25.20;;;13.77;;
19804;SDS011;10062;51.052;13.756;2023-04-08T13:17:52;23.40;;;13.07;;
19804;SDS011;10062;51.052;13.756;2023-04-08T13:20:24;25.43;;;13.10;;
19804;SDS011;10062;51.052;13.756;2023-04-08T13:22:57;20.80;;;11.60;;
19804;SDS011;10062;51.052;13.756;2023-04-08T13:25:29;20.73;;;11.53;;
19804;SDS011;10062;51.052;13.756;2023-04-08T13:28:02;19.77;;;9.37;;
19804;SDS011;10062;51.052;13.756;2023-04-08T13:30:34;20.00;;;10.30;;
19804;SDS011;10062;51.052;13.756;2023-04-08T13:33:06;21.93;;;11.87;;
19804;SDS011;10062;51.052;13.756;2023-04-08T13:35:38;19.10;;;11.13;;
19804;SDS011;10062;51.052;13.756;2023-04-08T13:38:09;19.83;;;10.53;;
19804;SDS011;10062;51.052;13.756;2023-04-08T13:40:41;20.93;;;11.17;;
19804;SDS011;10062;51.052;13.756;2023-04-08T13:43:15;23.73;;;12.53;;
19804;SDS011;10062;51.052;13.756;2023-04-08T13:45:47;18.70;;;11.13;;
19804;SDS011;10062;51.052;13.756;2023-04-08T13:48:18;19.77;;;10.63;;
19804;SDS011;10062;51.052;13.756;2023-04-08T13:50:50;18.03;;;10.83;;
19804;SDS011;10062;51.052;13.756;2023-04-08T13:53:22;20.53;;;11.87;;
19804;SDS011;10062;51.052;13.756;2023-04-08T13:55:53;20.77;;;10.97;;
19804;SDS011;10062;51.052;13.756;2023-04-08T13:58:27;18.23;;;10.27;;
19804;SDS011;10062;51.052;13.756;2023-04-08T14:00:59;19.63;;;11.07;;
19804;SDS011;10062;51.052;13.756;2023-04-08T14:03:31;17.33;;;10.77;;
19804;SDS011;10062;51.052;13.756;2023-04-08T14:06:03;20.93;;;11.63;;
19804;SDS011;10062;51.052;13.756;2023-04-08T14:08:35;20.87;;;10.70;;
19804;SDS011;10062;51.052;13.756;2023-04-08T14:11:06;20.53;;;11.17;;
19804;SDS011;10062;51.052;13.756;2023-04-08T14:13:39;20.20;;;10.97;;
19804;SDS011;10062;51.052;13.756;2023-04-08T14:16:11;20.03;;;11.73;;
19804;SDS011;10062;51.052;13.756;2023-04-08T14:18:43;18.33;;;10.83;;
19804;SDS011;10062;51.052;13.756;2023-04-08T14:21:14;20.27;;;11.67;;
19804;SDS011;10062;51.052;13.756;2023-04-08T14:23:47;21.83;;;12.17;;
19804;SDS011;10062;51.052;13.756;2023-04-08T14:26:18;20.57;;;10.93;;
19804;SDS011;10062;51.052;13.756;2023-04-08T14:28:51;19.27;;;10.83;;
19804;SDS011;10062;51.052;13.756;2023-04-08T14:31:23;19.20;;;11.10;;
19804;SDS011;10062;51.052;13.756;2023-04-08T14:33:55;20.03;;;11.57;;
19804;SDS011;10062;51.052;13.756;2023-04-08T14:36:26;18.43;;;9.03;;
19804;SDS011;10062;51.052;13.756;2023-04-08T14:38:59;17.77;;;10.47;;
19804;SDS011;10062;51.052;13.756;2023-04-08T14:41:30;18.53;;;10.87;;
19804;SDS011;10062;51.052;13.756;2023-04-08T14:44:04;19.27;;;11.40;;
19804;SDS011;10062;51.052;13.756;2023-04-08T14:46:35;17.37;;;10.30;;
19804;SDS011;10062;51.052;13.756;2023-04-08T14:49:07;17.63;;;10.77;;
19804;SDS011;10062;51.052;13.756;2023-04-08T14:51:38;20.47;;;11.00;;
19804;SDS011;10062;51.052;13.756;2023-04-08T14:54:10;19.17;;;11.03;;